Terminal Aerodrome Forecast
Issued by NWS

Current Version | Previous Version | Text Only | Print | Product List | Glossary Off
Versions: 1 2 3 4 5 6 7 8 9 10 11 12 13 14 15 16 17 18 19 20 21

441
FTUS41 KRLX 231459 AAA
TAFCKB
TAF AMD
KCKB 231459Z 2315/2412 11007KT P6SM SKC
     FM231600 VRB03KT P6SM OVC060
     FM240600 00000KT 6SM BR BKN050=

USA.gov is the U.S. government's official web portal to all federal, state and local government web resources and services.